sensor_id;sensor_type;location;lat;lon;timestamp;pressure;altitude;pressure_sealevel;temperature;humidity
45323;BME280;31382;50.200;8.674;2024-01-07T00:02:58;99978.19;;;7.18;68.30
45323;BME280;31382;50.200;8.674;2024-01-07T00:07:59;99980.69;;;7.11;68.59
45323;BME280;31382;50.200;8.674;2024-01-07T00:13:01;99982.19;;;7.05;67.75
45323;BME280;31382;50.200;8.674;2024-01-07T00:18:02;99974.75;;;6.91;68.23
45323;BME280;31382;50.200;8.674;2024-01-07T00:23:04;99977.47;;;6.99;68.28
45323;BME280;31382;50.200;8.674;2024-01-07T00:28:05;99984.97;;;6.95;68.18
45323;BME280;31382;50.200;8.674;2024-01-07T00:33:07;99993.81;;;6.88;68.80
45323;BME280;31382;50.200;8.674;2024-01-07T00:38:08;99995.97;;;6.92;67.72
45323;BME280;31382;50.200;8.674;2024-01-07T00:43:10;99990.91;;;6.81;67.99
45323;BME280;31382;50.200;8.674;2024-01-07T00:48:12;99997.94;;;6.82;68.22
45323;BME280;31382;50.200;8.674;2024-01-07T00:53:13;99998.47;;;6.86;68.10
45323;BME280;31382;50.200;8.674;2024-01-07T00:58:14;100002.97;;;6.85;68.00
45323;BME280;31382;50.200;8.674;2024-01-07T01:03:16;100008.75;;;6.72;68.45
45323;BME280;31382;50.200;8.674;2024-01-07T01:08:18;100013.97;;;6.82;67.76
45323;BME280;31382;50.200;8.674;2024-01-07T01:13:19;100025.31;;;6.76;67.86
45323;BME280;31382;50.200;8.674;2024-01-07T01:18:21;100027.44;;;6.72;68.30
45323;BME280;31382;50.200;8.674;2024-01-07T01:23:22;100032.31;;;6.77;68.48
45323;BME280;31382;50.200;8.674;2024-01-07T01:28:24;100031.47;;;6.77;67.90
45323;BME280;31382;50.200;8.674;2024-01-07T01:33:25;100033.63;;;6.73;68.34
45323;BME280;31382;50.200;8.674;2024-01-07T01:38:27;100043.78;;;6.69;68.59
45323;BME280;31382;50.200;8.674;2024-01-07T01:43:28;100049.34;;;6.76;68.29
45323;BME280;31382;50.200;8.674;2024-01-07T01:48:30;100047.19;;;6.80;68.26
45323;BME280;31382;50.200;8.674;2024-01-07T01:53:32;100050.22;;;6.85;68.53
45323;BME280;31382;50.200;8.674;2024-01-07T01:58:36;100054.88;;;6.83;67.82
45323;BME280;31382;50.200;8.674;2024-01-07T02:03:37;100051.38;;;6.82;68.42
45323;BME280;31382;50.200;8.674;2024-01-07T02:08:39;100055.84;;;6.73;68.00
45323;BME280;31382;50.200;8.674;2024-01-07T02:13:41;100051.94;;;6.60;68.54
45323;BME280;31382;50.200;8.674;2024-01-07T02:18:44;100056.75;;;6.56;69.02
45323;BME280;31382;50.200;8.674;2024-01-07T02:23:47;100052.72;;;6.52;69.04
45323;BME280;31382;50.200;8.674;2024-01-07T02:28:48;100061.97;;;6.66;69.05
45323;BME280;31382;50.200;8.674;2024-01-07T02:33:50;100050.91;;;6.61;68.95
45323;BME280;31382;50.200;8.674;2024-01-07T02:38:53;100057.31;;;6.68;69.02
45323;BME280;31382;50.200;8.674;2024-01-07T02:43:54;100069.47;;;6.62;69.30
45323;BME280;31382;50.200;8.674;2024-01-07T02:48:56;100070.44;;;6.61;68.83
45323;BME280;31382;50.200;8.674;2024-01-07T02:53:58;100069.72;;;6.51;70.14
45323;BME280;31382;50.200;8.674;2024-01-07T02:59:00;100063.75;;;6.57;69.48
45323;BME280;31382;50.200;8.674;2024-01-07T03:04:07;100061.94;;;6.58;70.21
45323;BME280;31382;50.200;8.674;2024-01-07T03:09:09;100058.19;;;6.50;70.06
45323;BME280;31382;50.200;8.674;2024-01-07T03:14:11;100069.06;;;6.31;70.61
45323;BME280;31382;50.200;8.674;2024-01-07T03:19:14;100069.00;;;6.23;70.80
45323;BME280;31382;50.200;8.674;2024-01-07T03:24:16;100065.59;;;6.12;70.65
45323;BME280;31382;50.200;8.674;2024-01-07T03:29:22;100072.50;;;5.87;71.49
45323;BME280;31382;50.200;8.674;2024-01-07T03:34:24;100077.84;;;5.87;72.33
45323;BME280;31382;50.200;8.674;2024-01-07T03:39:32;100081.28;;;5.80;72.24
45323;BME280;31382;50.200;8.674;2024-01-07T03:44:39;100076.09;;;5.78;71.77
45323;BME280;31382;50.200;8.674;2024-01-07T03:49:41;100081.28;;;5.80;72.26
45323;BME280;31382;50.200;8.674;2024-01-07T03:54:43;100095.06;;;5.93;72.00
45323;BME280;31382;50.200;8.674;2024-01-07T03:59:45;100093.81;;;5.97;71.90
45323;BME280;31382;50.200;8.674;2024-01-07T04:04:50;100089.84;;;6.01;71.68
45323;BME280;31382;50.200;8.674;2024-01-07T04:09:53;100101.88;;;6.05;71.39
45323;BME280;31382;50.200;8.674;2024-01-07T04:14:55;100100.91;;;6.06;72.61
45323;BME280;31382;50.200;8.674;2024-01-07T04:19:57;100095.09;;;6.11;71.62
45323;BME280;31382;50.200;8.674;2024-01-07T04:24:59;100101.28;;;6.11;71.80
45323;BME280;31382;50.200;8.674;2024-01-07T04:30:01;100106.06;;;6.08;72.50
45323;BME280;31382;50.200;8.674;2024-01-07T04:35:06;100107.63;;;6.10;71.91
45323;BME280;31382;50.200;8.674;2024-01-07T04:40:12;100116.44;;;6.11;72.87
45323;BME280;31382;50.200;8.674;2024-01-07T04:45:14;100128.88;;;6.20;72.27
45323;BME280;31382;50.200;8.674;2024-01-07T04:50:17;100129.72;;;6.21;72.34
45323;BME280;31382;50.200;8.674;2024-01-07T04:55:21;100134.72;;;6.24;72.00
45323;BME280;31382;50.200;8.674;2024-01-07T05:00:23;100152.22;;;6.18;72.26
45323;BME280;31382;50.200;8.674;2024-01-07T05:05:25;100148.53;;;6.19;71.89
45323;BME280;31382;50.200;8.674;2024-01-07T05:10:26;100160.06;;;6.20;72.03
45323;BME280;31382;50.200;8.674;2024-01-07T05:15:28;100164.09;;;6.24;71.76
45323;BME280;31382;50.200;8.674;2024-01-07T05:20:29;100172.09;;;6.24;71.71
45323;BME280;31382;50.200;8.674;2024-01-07T05:25:31;100184.25;;;6.36;72.12
45323;BME280;31382;50.200;8.674;2024-01-07T05:30:32;100188.59;;;6.37;72.13
45323;BME280;31382;50.200;8.674;2024-01-07T05:35:37;100194.16;;;6.44;71.63
45323;BME280;31382;50.200;8.674;2024-01-07T05:40:39;100195.53;;;6.48;71.46
45323;BME280;31382;50.200;8.674;2024-01-07T05:45:41;100209.88;;;6.47;71.71
45323;BME280;31382;50.200;8.674;2024-01-07T05:50:43;100225.03;;;6.28;71.77
45323;BME280;31382;50.200;8.674;2024-01-07T05:55:45;100217.47;;;6.24;71.88
45323;BME280;31382;50.200;8.674;2024-01-07T06:00:46;100232.97;;;6.20;71.64
45323;BME280;31382;50.200;8.674;2024-01-07T06:05:49;100243.78;;;6.19;71.95
45323;BME280;31382;50.200;8.674;2024-01-07T06:10:54;100245.72;;;6.26;71.60
45323;BME280;31382;50.200;8.674;2024-01-07T06:15:56;100259.13;;;6.17;71.60
45323;BME280;31382;50.200;8.674;2024-01-07T06:20:58;100266.88;;;6.10;71.26
45323;BME280;31382;50.200;8.674;2024-01-07T06:25:59;100276.16;;;6.06;71.45
45323;BME280;31382;50.200;8.674;2024-01-07T06:31:04;100286.59;;;5.99;71.63
45323;BME280;31382;50.200;8.674;2024-01-07T06:36:07;100297.00;;;5.92;71.57
45323;BME280;31382;50.200;8.674;2024-01-07T06:41:11;100301.69;;;5.81;71.49
45323;BME280;31382;50.200;8.674;2024-01-07T06:46:12;100307.03;;;5.71;71.63
45323;BME280;31382;50.200;8.674;2024-01-07T06:51:14;100312.66;;;5.68;71.38
45323;BME280;31382;50.200;8.674;2024-01-07T06:56:15;100333.16;;;5.67;70.40
45323;BME280;31382;50.200;8.674;2024-01-07T07:01:20;100334.81;;;5.68;70.93
45323;BME280;31382;50.200;8.674;2024-01-07T07:06:23;100344.22;;;5.63;71.17
45323;BME280;31382;50.200;8.674;2024-01-07T07:11:25;100338.66;;;5.56;70.44
45323;BME280;31382;50.200;8.674;2024-01-07T07:16:27;100358.59;;;5.52;70.21
45323;BME280;31382;50.200;8.674;2024-01-07T07:21:28;100369.94;;;5.54;69.97
45323;BME280;31382;50.200;8.674;2024-01-07T07:26:30;100371.91;;;5.62;69.88
45323;BME280;31382;50.200;8.674;2024-01-07T07:31:31;100385.22;;;5.62;70.31
45323;BME280;31382;50.200;8.674;2024-01-07T07:36:33;100396.03;;;5.60;69.60
45323;BME280;31382;50.200;8.674;2024-01-07T07:41:34;100406.69;;;5.60;69.47
45323;BME280;31382;50.200;8.674;2024-01-07T07:46:36;100410.50;;;5.57;69.94
45323;BME280;31382;50.200;8.674;2024-01-07T07:51:38;100410.22;;;5.51;69.63
45323;BME280;31382;50.200;8.674;2024-01-07T07:56:40;100420.03;;;5.50;70.40
45323;BME280;31382;50.200;8.674;2024-01-07T08:01:41;100434.19;;;5.51;69.94
45323;BME280;31382;50.200;8.674;2024-01-07T08:06:43;100435.91;;;5.52;69.49
45323;BME280;31382;50.200;8.674;2024-01-07T08:11:46;100447.84;;;5.48;70.34
45323;BME280;31382;50.200;8.674;2024-01-07T08:16:47;100456.66;;;5.39;70.15
45323;BME280;31382;50.200;8.674;2024-01-07T08:21:49;100458.50;;;5.38;69.82
45323;BME280;31382;50.200;8.674;2024-01-07T08:26:50;100466.06;;;5.33;70.38
45323;BME280;31382;50.200;8.674;2024-01-07T08:31:53;100466.75;;;5.35;70.25
45323;BME280;31382;50.200;8.674;2024-01-07T08:36:54;100467.88;;;5.42;70.16
45323;BME280;31382;50.200;8.674;2024-01-07T08:41:56;100476.31;;;5.38;69.57
45323;BME280;31382;50.200;8.674;2024-01-07T08:46:57;100480.06;;;5.35;69.76
45323;BME280;31382;50.200;8.674;2024-01-07T08:52:01;100490.91;;;5.43;70.12
45323;BME280;31382;50.200;8.674;2024-01-07T08:57:03;100499.75;;;5.44;69.44
45323;BME280;31382;50.200;8.674;2024-01-07T09:02:05;100505.09;;;5.53;69.15
45323;BME280;31382;50.200;8.674;2024-01-07T09:07:06;100516.84;;;5.51;69.21
45323;BME280;31382;50.200;8.674;2024-01-07T09:12:08;100513.50;;;5.59;68.64
45323;BME280;31382;50.200;8.674;2024-01-07T09:17:09;100522.19;;;5.61;69.03
45323;BME280;31382;50.200;8.674;2024-01-07T09:22:11;100536.66;;;5.58;68.12
45323;BME280;31382;50.200;8.674;2024-01-07T09:27:13;100547.44;;;5.56;68.01
45323;BME280;31382;50.200;8.674;2024-01-07T09:32:15;100552.66;;;5.58;68.46
45323;BME280;31382;50.200;8.674;2024-01-07T09:37:17;100570.19;;;5.51;67.64
45323;BME280;31382;50.200;8.674;2024-01-07T09:42:18;100565.84;;;5.50;67.96
45323;BME280;31382;50.200;8.674;2024-01-07T09:47:20;100570.44;;;5.38;67.82
45323;BME280;31382;50.200;8.674;2024-01-07T09:52:21;100570.88;;;5.33;67.31
45323;BME280;31382;50.200;8.674;2024-01-07T09:57:23;100570.72;;;5.45;67.42
45323;BME280;31382;50.200;8.674;2024-01-07T10:02:25;100572.13;;;5.49;67.68
45323;BME280;31382;50.200;8.674;2024-01-07T10:07:26;100578.19;;;5.51;66.68
45323;BME280;31382;50.200;8.674;2024-01-07T10:12:28;100581.38;;;5.45;66.96
45323;BME280;31382;50.200;8.674;2024-01-07T10:17:29;100583.66;;;5.40;66.64
45323;BME280;31382;50.200;8.674;2024-01-07T10:22:31;100585.59;;;5.38;66.68
45323;BME280;31382;50.200;8.674;2024-01-07T10:27:36;100590.66;;;5.41;66.46
45323;BME280;31382;50.200;8.674;2024-01-07T10:32:38;100592.03;;;5.25;66.96
45323;BME280;31382;50.200;8.674;2024-01-07T10:37:44;100588.91;;;5.20;67.09
45323;BME280;31382;50.200;8.674;2024-01-07T10:42:48;100590.59;;;5.21;66.52
45323;BME280;31382;50.200;8.674;2024-01-07T10:47:50;100591.13;;;5.15;66.61
45323;BME280;31382;50.200;8.674;2024-01-07T10:53:03;100589.22;;;5.27;66.26
45323;BME280;31382;50.200;8.674;2024-01-07T10:58:09;100592.41;;;5.21;66.20
45323;BME280;31382;50.200;8.674;2024-01-07T11:03:17;100594.25;;;5.20;66.28
45323;BME280;31382;50.200;8.674;2024-01-07T11:13:38;100602.53;;;5.27;65.51
45323;BME280;31382;50.200;8.674;2024-01-07T11:19:00;100607.28;;;5.23;65.99
45323;BME280;31382;50.200;8.674;2024-01-07T11:24:04;100614.84;;;5.18;65.78
45323;BME280;31382;50.200;8.674;2024-01-07T11:29:08;100616.09;;;5.14;65.48
45323;BME280;31382;50.200;8.674;2024-01-07T11:34:10;100620.97;;;5.09;65.01
45323;BME280;31382;50.200;8.674;2024-01-07T11:39:12;100616.47;;;5.00;65.72
45323;BME280;31382;50.200;8.674;2024-01-07T11:44:14;100625.13;;;4.92;65.61
45323;BME280;31382;50.200;8.674;2024-01-07T11:49:16;100621.88;;;4.88;65.31
45323;BME280;31382;50.200;8.674;2024-01-07T11:54:18;100627.22;;;4.88;65.47
45323;BME280;31382;50.200;8.674;2024-01-07T11:59:20;100628.75;;;4.91;65.41
45323;BME280;31382;50.200;8.674;2024-01-07T12:04:21;100631.47;;;5.01;65.05
45323;BME280;31382;50.200;8.674;2024-01-07T12:09:24;100627.97;;;5.00;65.00
45323;BME280;31382;50.200;8.674;2024-01-07T12:14:25;100636.13;;;5.08;64.60
45323;BME280;31382;50.200;8.674;2024-01-07T12:19:28;100631.81;;;5.17;64.98
45323;BME280;31382;50.200;8.674;2024-01-07T12:24:30;100644.06;;;4.99;64.77
45323;BME280;31382;50.200;8.674;2024-01-07T12:29:32;100636.09;;;4.99;65.08
45323;BME280;31382;50.200;8.674;2024-01-07T12:34:33;100648.03;;;5.04;64.83
45323;BME280;31382;50.200;8.674;2024-01-07T12:39:35;100652.53;;;4.83;64.91
45323;BME280;31382;50.200;8.674;2024-01-07T12:44:36;100657.69;;;4.74;65.12
45323;BME280;31382;50.200;8.674;2024-01-07T12:49:38;100660.16;;;4.66;64.51
45323;BME280;31382;50.200;8.674;2024-01-07T12:54:39;100671.66;;;4.67;64.51
45323;BME280;31382;50.200;8.674;2024-01-07T12:59:41;100677.81;;;4.67;64.35
45323;BME280;31382;50.200;8.674;2024-01-07T13:04:42;100685.72;;;4.57;64.67
45323;BME280;31382;50.200;8.674;2024-01-07T13:09:44;100682.09;;;4.59;64.62
45323;BME280;31382;50.200;8.674;2024-01-07T13:14:46;100689.50;;;4.55;64.44
45323;BME280;31382;50.200;8.674;2024-01-07T13:19:48;100697.00;;;4.50;64.82
45323;BME280;31382;50.200;8.674;2024-01-07T13:24:50;100703.69;;;4.44;63.85
45323;BME280;31382;50.200;8.674;2024-01-07T13:29:51;100709.31;;;4.30;64.20
45323;BME280;31382;50.200;8.674;2024-01-07T13:34:53;100718.53;;;4.26;64.08
45323;BME280;31382;50.200;8.674;2024-01-07T13:39:54;100728.72;;;4.21;64.01
45323;BME280;31382;50.200;8.674;2024-01-07T13:44:56;100719.41;;;4.15;63.96
45323;BME280;31382;50.200;8.674;2024-01-07T13:49:57;100725.06;;;4.22;63.22
45323;BME280;31382;50.200;8.674;2024-01-07T13:54:58;100727.97;;;4.18;63.08
45323;BME280;31382;50.200;8.674;2024-01-07T14:00:00;100745.53;;;4.21;62.75
45323;BME280;31382;50.200;8.674;2024-01-07T14:05:06;100742.97;;;4.20;62.99
45323;BME280;31382;50.200;8.674;2024-01-07T14:10:10;100746.75;;;4.06;63.33
45323;BME280;31382;50.200;8.674;2024-01-07T14:15:12;100763.09;;;3.90;63.29
45323;BME280;31382;50.200;8.674;2024-01-07T14:20:13;100774.47;;;3.81;62.75
45323;BME280;31382;50.200;8.674;2024-01-07T14:25:15;100775.69;;;3.76;63.07
45323;BME280;31382;50.200;8.674;2024-01-07T14:30:16;100783.53;;;3.67;63.45
45323;BME280;31382;50.200;8.674;2024-01-07T14:35:18;100793.69;;;3.62;63.00
45323;BME280;31382;50.200;8.674;2024-01-07T14:40:19;100805.97;;;3.51;62.98
45323;BME280;31382;50.200;8.674;2024-01-07T14:45:21;100805.13;;;3.40;63.00
45323;BME280;31382;50.200;8.674;2024-01-07T14:50:22;100816.13;;;3.35;62.99
45323;BME280;31382;50.200;8.674;2024-01-07T14:55:34;100816.59;;;3.29;62.54
45323;BME280;31382;50.200;8.674;2024-01-07T15:00:35;100817.91;;;3.23;62.46
45323;BME280;31382;50.200;8.674;2024-01-07T15:05:37;100840.34;;;3.19;62.29
45323;BME280;31382;50.200;8.674;2024-01-07T15:10:40;100845.81;;;2.93;62.24
45323;BME280;31382;50.200;8.674;2024-01-07T15:15:42;100864.78;;;2.76;62.35
45323;BME280;31382;50.200;8.674;2024-01-07T15:20:45;100870.06;;;2.65;61.83
45323;BME280;31382;50.200;8.674;2024-01-07T15:25:46;100883.25;;;2.53;61.53
45323;BME280;31382;50.200;8.674;2024-01-07T15:30:48;100896.41;;;2.55;61.72
45323;BME280;31382;50.200;8.674;2024-01-07T15:35:49;100901.53;;;2.45;61.05
45323;BME280;31382;50.200;8.674;2024-01-07T15:40:51;100897.81;;;2.35;61.29
45323;BME280;31382;50.200;8.674;2024-01-07T15:45:52;100916.31;;;2.24;61.19
45323;BME280;31382;50.200;8.674;2024-01-07T15:50:54;100925.56;;;2.18;61.45
45323;BME280;31382;50.200;8.674;2024-01-07T15:55:55;100924.50;;;2.08;61.14
45323;BME280;31382;50.200;8.674;2024-01-07T16:01:00;100937.31;;;2.01;60.64
45323;BME280;31382;50.200;8.674;2024-01-07T16:06:02;100950.25;;;1.93;60.97
45323;BME280;31382;50.200;8.674;2024-01-07T16:11:03;100954.50;;;1.95;60.25
45323;BME280;31382;50.200;8.674;2024-01-07T16:16:06;100965.56;;;2.02;60.30
45323;BME280;31382;50.200;8.674;2024-01-07T16:21:09;100978.91;;;1.88;60.73
45323;BME280;31382;50.200;8.674;2024-01-07T16:26:11;100984.50;;;1.83;61.25
45323;BME280;31382;50.200;8.674;2024-01-07T16:31:12;100991.63;;;1.83;60.62
45323;BME280;31382;50.200;8.674;2024-01-07T16:36:14;100992.88;;;1.77;60.24
45323;BME280;31382;50.200;8.674;2024-01-07T16:41:15;101003.03;;;1.70;59.78
45323;BME280;31382;50.200;8.674;2024-01-07T16:46:16;101018.63;;;1.62;59.98
45323;BME280;31382;50.200;8.674;2024-01-07T16:51:19;101027.16;;;1.53;59.72
45323;BME280;31382;50.200;8.674;2024-01-07T16:56:21;101018.00;;;1.44;59.69
45323;BME280;31382;50.200;8.674;2024-01-07T17:01:22;101014.31;;;1.47;59.95
45323;BME280;31382;50.200;8.674;2024-01-07T17:06:26;101015.91;;;1.49;59.57
45323;BME280;31382;50.200;8.674;2024-01-07T17:11:28;101035.94;;;1.53;59.29
45323;BME280;31382;50.200;8.674;2024-01-07T17:16:30;101036.78;;;1.54;58.82
45323;BME280;31382;50.200;8.674;2024-01-07T17:21:31;101036.41;;;1.60;58.62
45323;BME280;31382;50.200;8.674;2024-01-07T17:26:33;101038.25;;;1.72;58.77
45323;BME280;31382;50.200;8.674;2024-01-07T17:31:35;101048.94;;;1.71;59.04
45323;BME280;31382;50.200;8.674;2024-01-07T17:36:36;101063.50;;;1.78;58.59
45323;BME280;31382;50.200;8.674;2024-01-07T17:41:37;101068.34;;;1.71;59.05
45323;BME280;31382;50.200;8.674;2024-01-07T17:46:39;101067.16;;;1.63;59.06
45323;BME280;31382;50.200;8.674;2024-01-07T17:51:41;101078.59;;;1.63;58.36
45323;BME280;31382;50.200;8.674;2024-01-07T17:56:46;101077.94;;;1.59;59.11
45323;BME280;31382;50.200;8.674;2024-01-07T18:01:47;101085.34;;;1.54;57.91
45323;BME280;31382;50.200;8.674;2024-01-07T18:06:49;101096.97;;;1.52;58.08
45323;BME280;31382;50.200;8.674;2024-01-07T18:11:51;101096.13;;;1.51;58.07
45323;BME280;31382;50.200;8.674;2024-01-07T18:16:54;101091.31;;;1.58;58.66
45323;BME280;31382;50.200;8.674;2024-01-07T18:21:55;101099.13;;;1.59;57.96
45323;BME280;31382;50.200;8.674;2024-01-07T18:26:57;101099.28;;;1.71;57.79
45323;BME280;31382;50.200;8.674;2024-01-07T18:31:58;101091.03;;;1.75;57.55
45323;BME280;31382;50.200;8.674;2024-01-07T18:37:00;101095.84;;;1.83;57.64
45323;BME280;31382;50.200;8.674;2024-01-07T18:42:02;101102.75;;;1.86;57.33
45323;BME280;31382;50.200;8.674;2024-01-07T18:47:04;101108.47;;;1.92;57.81
45323;BME280;31382;50.200;8.674;2024-01-07T18:52:08;101116.22;;;1.95;57.53
45323;BME280;31382;50.200;8.674;2024-01-07T18:57:13;101108.06;;;1.98;57.44
45323;BME280;31382;50.200;8.674;2024-01-07T19:02:17;101117.44;;;2.04;57.68
45323;BME280;31382;50.200;8.674;2024-01-07T19:07:19;101119.44;;;2.01;57.46
45323;BME280;31382;50.200;8.674;2024-01-07T19:12:21;101119.66;;;2.10;57.43
45323;BME280;31382;50.200;8.674;2024-01-07T19:17:22;101129.88;;;2.16;57.12
45323;BME280;31382;50.200;8.674;2024-01-07T19:22:24;101125.72;;;2.12;57.57
45323;BME280;31382;50.200;8.674;2024-01-07T19:27:27;101119.56;;;2.12;57.50
45323;BME280;31382;50.200;8.674;2024-01-07T19:32:28;101142.94;;;2.20;57.57
45323;BME280;31382;50.200;8.674;2024-01-07T19:37:30;101142.81;;;2.21;57.17
45323;BME280;31382;50.200;8.674;2024-01-07T19:42:31;101132.84;;;2.25;57.25
45323;BME280;31382;50.200;8.674;2024-01-07T19:47:33;101137.13;;;2.27;57.29
45323;BME280;31382;50.200;8.674;2024-01-07T19:52:35;101129.16;;;2.27;56.95
45323;BME280;31382;50.200;8.674;2024-01-07T19:57:37;101140.81;;;2.25;57.09
45323;BME280;31382;50.200;8.674;2024-01-07T20:02:39;101134.66;;;2.24;57.55
45323;BME280;31382;50.200;8.674;2024-01-07T20:07:41;101138.25;;;2.23;57.10
45323;BME280;31382;50.200;8.674;2024-01-07T20:12:43;101142.63;;;2.24;56.94
45323;BME280;31382;50.200;8.674;2024-01-07T20:17:45;101149.00;;;2.22;57.05
45323;BME280;31382;50.200;8.674;2024-01-07T20:22:47;101155.03;;;2.24;56.99
45323;BME280;31382;50.200;8.674;2024-01-07T20:27:48;101150.47;;;2.26;56.74
45323;BME280;31382;50.200;8.674;2024-01-07T20:32:50;101149.31;;;2.30;57.06
45323;BME280;31382;50.200;8.674;2024-01-07T20:37:51;101150.25;;;2.29;56.67
45323;BME280;31382;50.200;8.674;2024-01-07T20:42:53;101143.03;;;2.31;56.97
45323;BME280;31382;50.200;8.674;2024-01-07T20:47:55;101144.84;;;2.30;56.42
45323;BME280;31382;50.200;8.674;2024-01-07T20:52:57;101145.41;;;2.35;56.35
45323;BME280;31382;50.200;8.674;2024-01-07T20:57:58;101154.03;;;2.39;56.39
45323;BME280;31382;50.200;8.674;2024-01-07T21:03:00;101151.56;;;2.36;56.54
45323;BME280;31382;50.200;8.674;2024-01-07T21:08:01;101157.59;;;2.38;56.18
45323;BME280;31382;50.200;8.674;2024-01-07T21:13:07;101151.97;;;2.30;56.59
45323;BME280;31382;50.200;8.674;2024-01-07T21:18:08;101158.78;;;2.34;56.57
45323;BME280;31382;50.200;8.674;2024-01-07T21:23:13;101165.66;;;2.36;55.96
45323;BME280;31382;50.200;8.674;2024-01-07T21:28:17;101154.31;;;2.34;56.05
45323;BME280;31382;50.200;8.674;2024-01-07T21:33:19;101168.81;;;2.29;56.08
45323;BME280;31382;50.200;8.674;2024-01-07T21:38:21;101160.59;;;2.33;56.48
45323;BME280;31382;50.200;8.674;2024-01-07T21:43:22;101167.66;;;2.33;56.16
45323;BME280;31382;50.200;8.674;2024-01-07T21:48:26;101163.88;;;2.37;56.29
45323;BME280;31382;50.200;8.674;2024-01-07T21:53:28;101164.63;;;2.39;56.09
45323;BME280;31382;50.200;8.674;2024-01-07T21:58:29;101171.84;;;2.37;56.52
45323;BME280;31382;50.200;8.674;2024-01-07T22:03:32;101165.25;;;2.43;55.95
45323;BME280;31382;50.200;8.674;2024-01-07T22:08:34;101159.84;;;2.44;56.47
45323;BME280;31382;50.200;8.674;2024-01-07T22:13:36;101168.03;;;2.41;56.38
45323;BME280;31382;50.200;8.674;2024-01-07T22:18:38;101169.63;;;2.44;55.84
45323;BME280;31382;50.200;8.674;2024-01-07T22:23:40;101178.41;;;2.44;56.43
45323;BME280;31382;50.200;8.674;2024-01-07T22:28:42;101189.03;;;2.44;55.96
45323;BME280;31382;50.200;8.674;2024-01-07T22:33:44;101187.34;;;2.43;56.34
45323;BME280;31382;50.200;8.674;2024-01-07T22:38:47;101184.69;;;2.43;56.11
45323;BME280;31382;50.200;8.674;2024-01-07T22:43:49;101180.56;;;2.39;56.16
45323;BME280;31382;50.200;8.674;2024-01-07T22:48:51;101191.44;;;2.34;56.30
45323;BME280;31382;50.200;8.674;2024-01-07T22:53:52;101191.25;;;2.37;56.38
45323;BME280;31382;50.200;8.674;2024-01-07T22:58:54;101184.22;;;2.36;55.79
45323;BME280;31382;50.200;8.674;2024-01-07T23:03:55;101181.50;;;2.38;55.11
45323;BME280;31382;50.200;8.674;2024-01-07T23:09:00;101181.28;;;2.41;55.79
45323;BME280;31382;50.200;8.674;2024-01-07T23:14:01;101186.97;;;2.35;55.89
45323;BME280;31382;50.200;8.674;2024-01-07T23:19:05;101191.66;;;2.31;55.92
45323;BME280;31382;50.200;8.674;2024-01-07T23:24:06;101190.03;;;2.29;55.68
45323;BME280;31382;50.200;8.674;2024-01-07T23:29:08;101198.00;;;2.29;55.95
45323;BME280;31382;50.200;8.674;2024-01-07T23:34:09;101188.38;;;2.28;55.38
45323;BME280;31382;50.200;8.674;2024-01-07T23:39:11;101193.34;;;2.32;55.38
45323;BME280;31382;50.200;8.674;2024-01-07T23:44:13;101192.41;;;2.33;55.71
45323;BME280;31382;50.200;8.674;2024-01-07T23:49:15;101189.13;;;2.30;55.58
45323;BME280;31382;50.200;8.674;2024-01-07T23:54:17;101181.81;;;2.33;55.25
45323;BME280;31382;50.200;8.674;2024-01-07T23:59:19;101178.94;;;2.36;55.41
